createdAt,value
2022-08-31T00:00:25.926Z,15.32
2022-08-31T00:03:11.392Z,15.31
2022-08-31T00:05:39.656Z,15.30
2022-08-31T00:08:07.879Z,15.32
2022-08-31T00:10:37.181Z,15.28
2022-08-31T00:13:06.872Z,15.28
2022-08-31T00:15:36.905Z,15.26
2022-08-31T00:18:05.438Z,15.23
2022-08-31T00:20:34.716Z,15.23
2022-08-31T00:23:03.615Z,15.19
2022-08-31T00:25:33.735Z,15.24
2022-08-31T00:28:02.238Z,15.25
2022-08-31T00:30:30.887Z,15.20
2022-08-31T00:33:00.437Z,15.16
2022-08-31T00:35:29.006Z,15.18
2022-08-31T00:37:57.666Z,15.16
2022-08-31T00:40:26.429Z,15.16
2022-08-31T00:42:55.704Z,15.02
2022-08-31T00:45:24.575Z,15.13
2022-08-31T00:47:53.108Z,15.10
2022-08-31T00:50:25.293Z,15.08
2022-08-31T00:52:56.248Z,15.06
2022-08-31T00:55:29.914Z,15.04
2022-08-31T00:58:01.317Z,15.04
2022-08-31T01:00:30.420Z,15.05
2022-08-31T01:03:01.710Z,15.05
2022-08-31T01:05:31.913Z,15.00
2022-08-31T01:08:01.424Z,15.02
2022-08-31T01:10:34.687Z,14.99
2022-08-31T01:13:03.585Z,14.95
2022-08-31T01:15:32.268Z,14.91
2022-08-31T01:18:03.039Z,14.85
2022-08-31T01:20:49.154Z,14.88
2022-08-31T01:23:24.038Z,14.83
2022-08-31T01:25:54.794Z,14.75
2022-08-31T01:28:22.951Z,14.79
2022-08-31T01:31:01.441Z,14.78
2022-08-31T01:33:30.849Z,14.78
2022-08-31T01:35:59.441Z,14.72
2022-08-31T01:38:29.830Z,14.65
2022-08-31T01:41:01.959Z,14.60
2022-08-31T01:43:30.825Z,14.57
2022-08-31T01:46:00.093Z,14.53
2022-08-31T01:48:28.157Z,14.50
2022-08-31T01:50:56.430Z,14.47
2022-08-31T01:53:25.060Z,14.43
2022-08-31T01:55:54.519Z,14.45
2022-08-31T01:58:22.598Z,14.43
2022-08-31T02:01:33.590Z,14.35
2022-08-31T02:04:03.906Z,14.33
2022-08-31T02:06:33.059Z,14.27
2022-08-31T02:09:02.130Z,14.19
2022-08-31T02:11:31.507Z,14.12
2022-08-31T02:13:59.890Z,14.07
2022-08-31T02:16:28.152Z,14.02
2022-08-31T02:18:56.718Z,13.99
2022-08-31T02:21:24.822Z,13.95
2022-08-31T02:23:52.936Z,13.87
2022-08-31T02:26:22.238Z,13.83
2022-08-31T02:28:51.623Z,13.81
2022-08-31T02:31:20.071Z,13.73
2022-08-31T02:33:54.701Z,13.71
2022-08-31T02:36:24.355Z,13.66
2022-08-31T02:38:52.873Z,13.66
2022-08-31T02:41:21.642Z,13.64
2022-08-31T02:43:51.237Z,13.63
2022-08-31T02:46:19.840Z,13.57
2022-08-31T02:48:57.842Z,13.55
2022-08-31T02:51:26.389Z,13.42
2022-08-31T02:53:54.544Z,13.52
2022-08-31T02:56:23.739Z,13.56
2022-08-31T02:58:55.076Z,13.53
2022-08-31T03:01:26.405Z,13.53
2022-08-31T03:03:54.684Z,13.51
2022-08-31T03:06:23.705Z,13.50
2022-08-31T03:08:51.964Z,13.51
2022-08-31T03:11:20.501Z,13.48
2022-08-31T03:13:48.743Z,13.44
2022-08-31T03:16:20.106Z,13.43
2022-08-31T03:18:48.662Z,13.42
2022-08-31T03:21:17.029Z,13.36
2022-08-31T03:23:45.039Z,13.33
2022-08-31T03:26:13.477Z,13.32
2022-08-31T03:28:42.480Z,13.25
2022-08-31T03:31:30.341Z,13.22
2022-08-31T03:33:59.208Z,13.20
2022-08-31T03:36:27.417Z,13.17
2022-08-31T03:38:55.543Z,13.13
2022-08-31T03:41:26.061Z,13.07
2022-08-31T03:43:54.225Z,13.01
2022-08-31T03:46:22.769Z,12.97
2022-08-31T03:48:54.687Z,12.93
2022-08-31T03:51:23.210Z,12.92
2022-08-31T03:53:51.275Z,12.85
2022-08-31T03:56:20.197Z,12.83
2022-08-31T03:58:50.841Z,12.78
2022-08-31T04:01:48.036Z,12.75
2022-08-31T04:04:36.238Z,12.75
2022-08-31T04:07:42.238Z,12.72
2022-08-31T04:10:29.898Z,12.70
2022-08-31T04:13:30.544Z,12.67
2022-08-31T04:16:28.402Z,12.62
2022-08-31T04:19:31.126Z,12.68
2022-08-31T04:22:05.552Z,12.68
2022-08-31T04:24:39.608Z,12.65
2022-08-31T04:27:07.592Z,12.65
2022-08-31T04:29:35.840Z,12.54
2022-08-31T04:32:04.539Z,12.56
2022-08-31T04:34:32.701Z,12.55
2022-08-31T04:37:01.456Z,12.59
2022-08-31T04:39:33.863Z,12.67
2022-08-31T04:42:02.412Z,12.71
2022-08-31T04:44:34.125Z,12.78
2022-08-31T04:47:02.961Z,12.85
2022-08-31T04:49:31.040Z,12.95
2022-08-31T04:51:59.121Z,12.95
2022-08-31T04:54:32.597Z,13.02
2022-08-31T04:57:01.439Z,13.06
2022-08-31T04:59:33.352Z,13.12
2022-08-31T05:02:19.794Z,13.16
2022-08-31T05:05:32.056Z,13.14
2022-08-31T05:08:00.665Z,13.23
2022-08-31T05:10:30.285Z,13.23
2022-08-31T05:12:58.453Z,13.27
2022-08-31T05:15:27.616Z,13.25
2022-08-31T05:17:55.735Z,13.23
2022-08-31T05:20:24.216Z,13.26
2022-08-31T05:22:52.342Z,13.31
2022-08-31T05:25:20.402Z,13.37
2022-08-31T05:27:50.563Z,13.39
2022-08-31T05:30:19.394Z,13.47
2022-08-31T05:33:02.543Z,13.52
2022-08-31T05:35:31.322Z,13.55
2022-08-31T05:37:59.362Z,13.59
2022-08-31T05:40:28.566Z,13.64
2022-08-31T05:42:59.502Z,13.76
2022-08-31T05:45:28.097Z,13.77
2022-08-31T05:47:56.607Z,13.83
2022-08-31T05:50:24.736Z,13.88
2022-08-31T05:52:52.854Z,13.93
2022-08-31T05:55:20.991Z,13.91
2022-08-31T05:57:49.072Z,13.98
2022-08-31T06:00:18.787Z,13.99
2022-08-31T06:02:53.875Z,13.97
2022-08-31T06:05:22.504Z,14.08
2022-08-31T06:07:52.451Z,14.18
2022-08-31T06:10:21.764Z,14.07
2022-08-31T06:12:50.158Z,14.53
2022-08-31T06:15:21.009Z,15.23
2022-08-31T06:17:49.096Z,15.59
2022-08-31T06:20:18.305Z,15.56
2022-08-31T06:22:47.896Z,15.34
2022-08-31T06:25:24.881Z,15.72
2022-08-31T06:27:56.472Z,16.86
2022-08-31T06:30:27.453Z,17.56
2022-08-31T06:32:58.798Z,18.33
2022-08-31T06:35:40.290Z,19.32
2022-08-31T06:38:28.473Z,19.40
2022-08-31T06:41:27.113Z,20.56
2022-08-31T06:44:25.029Z,20.38
2022-08-31T06:47:13.318Z,20.69
2022-08-31T06:49:42.924Z,20.62
2022-08-31T06:52:11.060Z,20.26
2022-08-31T06:54:40.723Z,18.77
2022-08-31T06:57:27.293Z,17.97
2022-08-31T07:00:24.220Z,17.56
2022-08-31T07:03:33.210Z,17.30
2022-08-31T07:06:07.471Z,17.04
2022-08-31T07:08:36.598Z,17.21
2022-08-31T07:11:05.635Z,17.16
2022-08-31T07:13:33.774Z,17.03
2022-08-31T07:16:07.535Z,17.07
2022-08-31T07:18:37.350Z,17.24
2022-08-31T07:21:14.028Z,17.33
2022-08-31T07:23:43.491Z,17.10
2022-08-31T07:26:17.695Z,17.41
2022-08-31T07:28:52.841Z,17.51
2022-08-31T07:31:23.892Z,17.26
2022-08-31T07:33:56.539Z,17.44
2022-08-31T07:36:27.549Z,17.50
2022-08-31T07:39:22.322Z,17.44
2022-08-31T07:42:07.790Z,17.50
2022-08-31T07:44:35.992Z,17.37
2022-08-31T07:47:07.859Z,17.26
2022-08-31T07:49:38.632Z,17.25
2022-08-31T07:52:32.284Z,17.36
2022-08-31T07:55:07.803Z,17.50
2022-08-31T07:57:56.965Z,17.55
2022-08-31T08:00:28.502Z,17.70
2022-08-31T08:03:01.710Z,17.77
2022-08-31T08:05:41.673Z,17.86
2022-08-31T08:08:28.661Z,17.86
2022-08-31T08:11:26.143Z,18.04
2022-08-31T08:14:08.780Z,18.20
2022-08-31T08:16:59.934Z,18.19
2022-08-31T08:19:37.459Z,17.94
2022-08-31T08:22:07.024Z,18.10
2022-08-31T08:25:00.186Z,18.31
2022-08-31T08:28:22.892Z,18.38
2022-08-31T08:30:54.549Z,18.39
2022-08-31T08:33:25.026Z,18.38
2022-08-31T08:35:56.943Z,18.28
2022-08-31T08:38:30.884Z,18.54
2022-08-31T08:41:03.584Z,18.79
2022-08-31T08:43:34.706Z,18.83
2022-08-31T08:46:25.255Z,18.69
2022-08-31T08:48:56.136Z,18.87
2022-08-31T08:51:32.304Z,19.22
2022-08-31T08:54:10.783Z,19.53
2022-08-31T08:56:48.930Z,19.92
2022-08-31T08:59:20.668Z,19.70
2022-08-31T09:02:02.033Z,19.81
2022-08-31T09:04:50.453Z,19.61
2022-08-31T09:07:44.454Z,20.52
2022-08-31T09:10:25.687Z,21.02
2022-08-31T09:13:07.027Z,20.79
2022-08-31T09:15:55.012Z,20.43
2022-08-31T09:18:43.762Z,19.91
2022-08-31T09:21:22.184Z,20.19
2022-08-31T09:24:01.510Z,19.87
2022-08-31T09:26:35.358Z,19.90
2022-08-31T09:29:14.007Z,19.98
2022-08-31T09:31:46.494Z,20.01
2022-08-31T09:34:28.497Z,19.89
2022-08-31T09:37:16.202Z,19.94
2022-08-31T09:39:47.587Z,20.37
2022-08-31T09:42:29.027Z,20.29
2022-08-31T09:45:00.170Z,20.62
2022-08-31T09:47:49.094Z,20.84
2022-08-31T09:50:33.609Z,21.11
2022-08-31T09:53:29.758Z,21.56
2022-08-31T09:56:17.023Z,22.07
2022-08-31T09:58:51.800Z,21.49
2022-08-31T10:01:25.683Z,21.41
2022-08-31T10:04:10.145Z,21.41
2022-08-31T10:06:47.190Z,21.67
2022-08-31T10:09:28.555Z,23.41
2022-08-31T10:11:59.782Z,23.82
2022-08-31T10:14:36.149Z,22.91
2022-08-31T10:17:10.755Z,22.60
2022-08-31T10:19:51.695Z,22.33
2022-08-31T10:22:31.027Z,22.21
2022-08-31T10:25:14.409Z,21.95
2022-08-31T10:27:48.189Z,21.91
2022-08-31T10:30:30.046Z,22.19
2022-08-31T10:33:05.439Z,22.13
2022-08-31T10:35:41.144Z,22.03
2022-08-31T10:38:24.138Z,22.07
2022-08-31T10:40:59.407Z,21.86
2022-08-31T10:43:33.315Z,21.72
2022-08-31T10:46:03.892Z,21.93
2022-08-31T10:48:33.233Z,22.28
2022-08-31T10:51:18.110Z,22.50
2022-08-31T10:54:01.378Z,22.66
2022-08-31T10:56:37.285Z,22.58
2022-08-31T10:59:13.946Z,22.02
2022-08-31T11:01:55.453Z,21.88
2022-08-31T11:04:52.713Z,22.06
2022-08-31T11:07:33.504Z,21.98
2022-08-31T11:10:20.043Z,22.32
2022-08-31T11:12:52.281Z,22.56
2022-08-31T11:15:45.618Z,22.68
2022-08-31T11:18:40.985Z,22.94
2022-08-31T11:21:35.173Z,23.05
2022-08-31T11:24:30.098Z,23.08
2022-08-31T11:27:11.877Z,23.21
2022-08-31T11:29:43.895Z,23.21
2022-08-31T11:32:23.281Z,23.14
2022-08-31T11:34:56.562Z,23.60
2022-08-31T11:37:50.939Z,23.75
2022-08-31T11:40:52.293Z,23.78
2022-08-31T11:43:52.306Z,23.46
2022-08-31T11:46:58.975Z,23.42
2022-08-31T11:49:39.522Z,23.43
2022-08-31T11:52:14.609Z,23.53
2022-08-31T11:55:08.887Z,23.87
2022-08-31T11:58:20.697Z,24.09
2022-08-31T12:00:54.018Z,24.65
2022-08-31T12:03:42.052Z,24.57
2022-08-31T12:06:12.471Z,24.26
2022-08-31T12:08:52.324Z,24.05
2022-08-31T12:11:33.987Z,24.10
2022-08-31T12:14:12.179Z,24.03
2022-08-31T12:16:57.750Z,24.47
2022-08-31T12:19:52.712Z,24.47
2022-08-31T12:23:04.468Z,24.37
2022-08-31T12:25:41.348Z,24.29
2022-08-31T12:28:17.210Z,24.53
2022-08-31T12:30:56.767Z,24.86
2022-08-31T12:33:27.843Z,25.07
2022-08-31T12:35:58.131Z,25.38
2022-08-31T12:38:27.402Z,25.69
2022-08-31T12:40:58.676Z,26.30
2022-08-31T12:43:32.725Z,26.57
2022-08-31T12:46:31.905Z,27.02
2022-08-31T12:49:15.833Z,27.07
2022-08-31T12:51:47.599Z,27.70
2022-08-31T12:54:45.324Z,27.68
2022-08-31T12:57:29.807Z,28.04
2022-08-31T13:00:05.701Z,28.50
2022-08-31T13:02:35.859Z,28.31
2022-08-31T13:05:04.880Z,26.80
2022-08-31T13:07:34.829Z,26.25
2022-08-31T13:10:05.994Z,26.02
2022-08-31T13:12:36.215Z,26.11
2022-08-31T13:15:04.894Z,25.45
2022-08-31T13:17:39.570Z,25.23
2022-08-31T13:20:08.682Z,24.91
2022-08-31T13:22:41.139Z,24.58
2022-08-31T13:25:17.151Z,24.28
2022-08-31T13:27:52.495Z,24.46
2022-08-31T13:30:25.404Z,25.82
2022-08-31T13:32:54.627Z,27.37
2022-08-31T13:35:26.982Z,27.94
2022-08-31T13:38:05.009Z,28.07
2022-08-31T13:40:37.141Z,27.49
2022-08-31T13:43:09.550Z,27.96
2022-08-31T13:45:43.071Z,28.04
2022-08-31T13:48:16.799Z,28.12
2022-08-31T13:50:52.609Z,27.62
2022-08-31T13:53:39.783Z,27.43
2022-08-31T13:56:43.079Z,27.49
2022-08-31T13:59:23.187Z,27.17
2022-08-31T14:01:53.187Z,27.68
2022-08-31T14:04:39.034Z,27.82
2022-08-31T14:07:07.077Z,27.37
2022-08-31T14:09:35.218Z,27.92
2022-08-31T14:12:04.378Z,27.61
2022-08-31T14:14:44.016Z,27.65
2022-08-31T14:17:16.198Z,26.57
2022-08-31T14:19:46.837Z,26.40
2022-08-31T14:22:17.482Z,26.22
2022-08-31T14:24:45.474Z,25.90
2022-08-31T14:27:13.493Z,25.67
2022-08-31T14:29:42.886Z,25.36
2022-08-31T14:32:10.917Z,25.18
2022-08-31T14:34:48.621Z,24.56
2022-08-31T14:37:22.573Z,24.28
2022-08-31T14:39:53.698Z,24.07
2022-08-31T14:42:25.567Z,24.22
2022-08-31T14:45:00.565Z,24.43
2022-08-31T14:47:31.542Z,25.02
2022-08-31T14:50:05.970Z,25.19
2022-08-31T14:52:35.208Z,24.95
2022-08-31T14:55:03.504Z,24.78
2022-08-31T14:57:34.401Z,24.26
2022-08-31T15:00:06.722Z,24.15
2022-08-31T15:02:35.968Z,24.17
2022-08-31T15:05:07.193Z,24.45
2022-08-31T15:07:39.125Z,24.75
2022-08-31T15:10:11.298Z,24.57
2022-08-31T15:12:39.659Z,24.52
2022-08-31T15:15:10.965Z,24.16
2022-08-31T15:17:40.175Z,24.05
2022-08-31T15:20:11.346Z,23.89
2022-08-31T15:22:40.496Z,23.91
2022-08-31T15:25:12.819Z,23.97
2022-08-31T15:27:44.441Z,23.79
2022-08-31T15:30:15.992Z,23.48
2022-08-31T15:32:45.239Z,23.51
2022-08-31T15:35:17.933Z,23.53
2022-08-31T15:37:54.939Z,23.71
2022-08-31T15:40:23.912Z,23.66
2022-08-31T15:42:53.969Z,23.79
2022-08-31T15:45:23.589Z,23.52
2022-08-31T15:48:09.027Z,23.76
2022-08-31T15:50:37.271Z,23.80
2022-08-31T15:53:09.923Z,23.71
2022-08-31T15:55:40.709Z,23.96
2022-08-31T15:58:09.824Z,23.93
2022-08-31T16:00:41.583Z,23.92
2022-08-31T16:03:09.780Z,23.76
2022-08-31T16:05:38.749Z,23.76
2022-08-31T16:08:11.107Z,23.70
2022-08-31T16:10:43.530Z,23.80
2022-08-31T16:13:11.719Z,23.70
2022-08-31T16:15:41.174Z,23.53
2022-08-31T16:18:09.770Z,23.47
2022-08-31T16:20:39.204Z,23.45
2022-08-31T16:23:07.705Z,23.25
2022-08-31T16:25:47.429Z,23.01
2022-08-31T16:28:16.318Z,23.08
2022-08-31T16:30:45.733Z,23.04
2022-08-31T16:33:13.800Z,22.95
2022-08-31T16:35:44.404Z,22.89
2022-08-31T16:38:12.681Z,22.77
2022-08-31T16:40:41.978Z,22.74
2022-08-31T16:43:10.342Z,22.59
2022-08-31T16:45:39.181Z,22.40
2022-08-31T16:48:30.002Z,22.34
2022-08-31T16:51:01.954Z,22.11
2022-08-31T16:53:30.898Z,22.07
2022-08-31T16:56:00.153Z,21.85
2022-08-31T16:58:50.557Z,21.91
2022-08-31T17:01:22.046Z,21.77
2022-08-31T17:03:53.804Z,21.63
2022-08-31T17:06:22.197Z,21.53
2022-08-31T17:08:56.031Z,21.44
2022-08-31T17:11:26.374Z,21.36
2022-08-31T17:13:58.413Z,21.28
2022-08-31T17:16:29.028Z,21.20
2022-08-31T17:18:59.290Z,21.12
2022-08-31T17:21:29.397Z,20.93
2022-08-31T17:24:01.912Z,20.99
2022-08-31T17:26:32.555Z,20.94
2022-08-31T17:29:02.862Z,20.06
2022-08-31T17:31:34.573Z,20.73
2022-08-31T17:34:04.437Z,20.61
2022-08-31T17:36:37.205Z,20.54
2022-08-31T17:39:06.202Z,20.49
2022-08-31T17:41:34.390Z,20.44
2022-08-31T17:44:02.953Z,20.37
2022-08-31T17:46:31.402Z,20.31
2022-08-31T17:49:00.463Z,20.21
2022-08-31T17:51:32.993Z,20.18
2022-08-31T17:54:03.275Z,20.10
2022-08-31T17:56:34.780Z,20.01
2022-08-31T17:59:03.187Z,19.94
2022-08-31T18:01:31.437Z,19.73
2022-08-31T18:04:02.250Z,19.69
2022-08-31T18:06:31.975Z,19.64
2022-08-31T18:09:01.142Z,19.54
2022-08-31T18:11:29.409Z,19.39
2022-08-31T18:13:58.306Z,19.23
2022-08-31T18:16:26.746Z,19.06
2022-08-31T18:18:54.865Z,18.95
2022-08-31T18:21:24.597Z,18.86
2022-08-31T18:23:54.949Z,18.75
2022-08-31T18:26:25.365Z,18.55
2022-08-31T18:28:54.445Z,18.55
2022-08-31T18:31:28.025Z,18.51
2022-08-31T18:33:56.863Z,18.46
2022-08-31T18:36:25.846Z,18.35
2022-08-31T18:38:57.952Z,18.26
2022-08-31T18:41:46.471Z,18.11
2022-08-31T18:44:32.886Z,18.02
2022-08-31T18:47:02.348Z,17.86
2022-08-31T18:49:37.413Z,17.92
2022-08-31T18:52:07.269Z,17.83
2022-08-31T18:54:36.880Z,17.74
2022-08-31T18:57:05.137Z,17.71
2022-08-31T18:59:33.237Z,17.67
2022-08-31T19:02:02.653Z,17.66
2022-08-31T19:04:30.870Z,17.59
2022-08-31T19:06:59.243Z,17.58
2022-08-31T19:09:27.396Z,17.54
2022-08-31T19:12:02.140Z,17.45
2022-08-31T19:14:33.616Z,17.46
2022-08-31T19:17:03.953Z,17.28
2022-08-31T19:19:33.989Z,17.27
2022-08-31T19:22:02.429Z,17.25
2022-08-31T19:24:30.585Z,17.14
2022-08-31T19:27:01.044Z,17.08
2022-08-31T19:29:32.397Z,16.95
2022-08-31T19:32:02.785Z,16.91
2022-08-31T19:34:35.163Z,16.82
2022-08-31T19:37:04.227Z,16.78
2022-08-31T19:39:37.389Z,16.80
2022-08-31T19:42:08.820Z,16.83
2022-08-31T19:44:54.968Z,16.80
2022-08-31T19:47:26.492Z,16.72
2022-08-31T19:49:55.093Z,16.66
2022-08-31T19:52:24.472Z,16.61
2022-08-31T19:54:52.563Z,16.61
2022-08-31T19:57:22.584Z,16.61
2022-08-31T19:59:50.892Z,16.61
2022-08-31T20:02:19.116Z,16.59
2022-08-31T20:04:47.260Z,16.57
2022-08-31T20:07:15.904Z,16.55
2022-08-31T20:09:44.086Z,16.54
2022-08-31T20:12:12.509Z,16.50
2022-08-31T20:14:41.822Z,16.43
2022-08-31T20:17:09.856Z,16.39
2022-08-31T20:19:39.459Z,16.34
2022-08-31T20:22:07.938Z,16.32
2022-08-31T20:24:39.105Z,16.24
2022-08-31T20:27:16.476Z,16.20
2022-08-31T20:29:49.064Z,16.13
2022-08-31T20:32:17.081Z,16.09
2022-08-31T20:34:45.055Z,16.05
2022-08-31T20:37:14.045Z,15.99
2022-08-31T20:39:42.350Z,15.98
2022-08-31T20:42:10.488Z,15.91
2022-08-31T20:44:39.829Z,15.90
2022-08-31T20:47:28.445Z,15.85
2022-08-31T20:49:58.542Z,15.81
2022-08-31T20:52:29.001Z,15.74
2022-08-31T20:55:02.268Z,15.72
2022-08-31T20:57:33.078Z,15.69
2022-08-31T21:00:04.951Z,15.59
2022-08-31T21:02:35.539Z,15.51
2022-08-31T21:05:36.425Z,15.50
2022-08-31T21:07:57.194Z,15.47
2022-08-31T21:10:32.561Z,15.41
2022-08-31T21:13:11.153Z,15.33
2022-08-31T21:15:44.399Z,15.43
2022-08-31T21:18:17.706Z,15.31
2022-08-31T21:20:46.826Z,15.40
2022-08-31T21:23:15.207Z,15.38
2022-08-31T21:25:45.733Z,15.37
2022-08-31T21:28:17.253Z,15.15
2022-08-31T21:30:47.116Z,15.28
2022-08-31T21:33:16.833Z,15.25
2022-08-31T21:35:44.906Z,15.08
2022-08-31T21:38:13.514Z,15.11
2022-08-31T21:40:48.944Z,15.06
2022-08-31T21:43:17.066Z,15.01
2022-08-31T21:45:45.142Z,14.94
2022-08-31T21:48:13.191Z,14.91
2022-08-31T21:50:42.653Z,14.85
2022-08-31T21:53:11.745Z,14.77
2022-08-31T21:55:39.879Z,14.68
2022-08-31T21:58:08.010Z,14.64
2022-08-31T22:00:42.101Z,14.60
2022-08-31T22:03:10.427Z,14.53
2022-08-31T22:05:41.586Z,14.48
2022-08-31T22:08:11.292Z,14.48
2022-08-31T22:10:41.071Z,14.20
2022-08-31T22:13:11.464Z,14.49
2022-08-31T22:15:42.604Z,14.46
2022-08-31T22:18:58.331Z,14.48
2022-08-31T22:21:00.208Z,14.49
2022-08-31T22:23:30.394Z,14.18
2022-08-31T22:25:58.516Z,14.51
2022-08-31T22:28:27.519Z,14.45
2022-08-31T22:30:55.844Z,14.42
2022-08-31T22:33:23.895Z,14.37
2022-08-31T22:35:51.995Z,14.29
2022-08-31T22:38:20.262Z,14.20
2022-08-31T22:40:49.943Z,14.18
2022-08-31T22:43:18.326Z,14.17
2022-08-31T22:45:48.779Z,14.15
2022-08-31T22:48:17.247Z,14.11
2022-08-31T22:50:45.285Z,14.05
2022-08-31T22:53:14.088Z,14.02
2022-08-31T22:55:42.991Z,13.97
2022-08-31T22:58:12.888Z,13.91
2022-08-31T23:00:42.099Z,13.84
2022-08-31T23:03:13.559Z,13.87
2022-08-31T23:05:42.274Z,13.81
2022-08-31T23:08:11.291Z,13.79
2022-08-31T23:10:40.279Z,13.78
2022-08-31T23:13:08.248Z,13.73
2022-08-31T23:15:38.340Z,13.70
2022-08-31T23:18:07.723Z,13.70
2022-08-31T23:20:36.753Z,13.71
2022-08-31T23:23:06.059Z,13.75
2022-08-31T23:25:35.340Z,13.73
2022-08-31T23:28:03.558Z,13.72
2022-08-31T23:30:31.585Z,13.68
2022-08-31T23:33:02.247Z,13.65
2022-08-31T23:35:30.276Z,13.62
2022-08-31T23:38:00.559Z,13.61
2022-08-31T23:40:30.880Z,13.58
2022-08-31T23:42:58.968Z,13.57
2022-08-31T23:45:27.025Z,13.57
2022-08-31T23:47:56.944Z,13.52
2022-08-31T23:50:26.349Z,13.50
2022-08-31T23:52:54.349Z,13.50
2022-08-31T23:55:28.294Z,13.48
2022-08-31T23:57:59.245Z,13.51
